Time,TemperatureF,DewpointF,PressureIn,WindDirection,WindDirectionDegrees,WindSpeedMPH,WindSpeedGustMPH,Humidity,HourlyPrecipIn,Conditions,Clouds,dailyrainin,SoftwareType,DateUTC
2013-02-15 00:00:00,41.9,39.2,30.01,South,188,0.0,0.0,90,0.00,,,0.00,Wunderground v.1.15,2013-02-15 05:00:00,
2013-02-15 00:06:00,41.5,38.8,30.02,South,188,0.0,0.0,90,0.00,,,0.00,Wunderground v.1.15,2013-02-15 05:06:00,
2013-02-15 00:15:00,41.2,38.8,30.02,South,188,0.0,0.0,91,0.00,,,0.00,Wunderground v.1.15,2013-02-15 05:15:00,
2013-02-15 00:26:00,41.2,39.1,30.02,South,188,1.0,1.0,92,0.00,,,0.00,Wunderground v.1.15,2013-02-15 05:26:00,
2013-02-15 00:35:00,41.0,38.6,30.01,South,188,1.0,1.0,91,0.00,,,0.00,Wunderground v.1.15,2013-02-15 05:35:00,
2013-02-15 00:41:00,40.9,38.8,30.01,South,188,0.0,0.0,92,0.00,,,0.00,Wunderground v.1.15,2013-02-15 05:41:00,
2013-02-15 00:51:00,40.7,38.6,30.01,South,188,0.0,0.0,92,0.00,,,0.00,Wunderground v.1.15,2013-02-15 05:51:00,
2013-02-15 00:56:00,40.6,38.5,30.02,South,188,0.0,0.0,92,0.00,,,0.00,Wunderground v.1.15,2013-02-15 05:56:00,
2013-02-15 01:06:00,40.5,38.6,30.02,South,188,0.0,0.0,93,0.00,,,0.00,Wunderground v.1.15,2013-02-15 06:06:00,
2013-02-15 01:15:00,40.7,38.8,30.04,South,188,0.0,0.0,93,0.00,,,0.00,Wunderground v.1.15,2013-02-15 06:15:00,
2013-02-15 01:20:00,40.6,38.7,30.03,South,188,0.0,0.0,93,0.00,,,0.00,Wunderground v.1.15,2013-02-15 06:20:00,
2013-02-15 01:30:00,40.2,38.3,30.03,South,188,0.0,0.0,93,0.00,,,0.00,Wunderground v.1.15,2013-02-15 06:30:00,
2013-02-15 01:35:00,39.9,38.0,30.03,South,188,0.0,0.0,93,0.00,,,0.00,Wunderground v.1.15,2013-02-15 06:35:00,
2013-02-15 01:45:00,39.2,37.3,30.02,South,188,0.0,0.0,93,0.00,,,0.00,Wunderground v.1.15,2013-02-15 06:45:00,
2013-02-15 01:50:00,38.8,36.9,30.02,South,188,0.0,0.0,93,0.00,,,0.00,Wunderground v.1.15,2013-02-15 06:50:00,
2013-02-15 01:56:00,38.7,36.9,30.03,South,188,0.0,0.0,93,0.00,,,0.00,Wunderground v.1.15,2013-02-15 06:56:00,
2013-02-15 02:06:00,39.1,37.5,30.03,South,188,0.0,0.0,94,0.00,,,0.00,Wunderground v.1.15,2013-02-15 07:06:00,
2013-02-15 02:15:00,39.2,37.6,30.03,South,188,0.0,0.0,94,0.00,,,0.00,Wunderground v.1.15,2013-02-15 07:15:00,
2013-02-15 02:21:00,39.2,37.6,30.03,South,188,0.0,0.0,94,0.00,,,0.01,Wunderground v.1.15,2013-02-15 07:21:00,
2013-02-15 02:30:00,38.8,37.2,30.03,South,188,0.0,0.0,94,0.00,,,0.01,Wunderground v.1.15,2013-02-15 07:30:00,
2013-02-15 02:36:00,38.4,36.8,30.03,South,188,0.0,0.0,94,0.00,,,0.01,Wunderground v.1.15,2013-02-15 07:36:00,
2013-02-15 02:45:00,38.0,36.4,30.02,South,188,0.0,0.0,94,0.00,,,0.01,Wunderground v.1.15,2013-02-15 07:45:00,
2013-02-15 02:51:00,38.0,36.4,30.03,South,188,0.0,0.0,94,0.00,,,0.01,Wunderground v.1.15,2013-02-15 07:51:00,
2013-02-15 03:00:00,38.3,36.7,30.03,South,188,0.0,0.0,94,0.00,,,0.01,Wunderground v.1.15,2013-02-15 08:00:00,
2013-02-15 03:05:00,38.3,36.7,30.03,South,188,0.0,0.0,94,0.00,,,0.01,Wunderground v.1.15,2013-02-15 08:05:00,
2013-02-15 03:11:00,38.2,36.6,30.03,South,188,0.0,0.0,94,0.00,,,0.01,Wunderground v.1.15,2013-02-15 08:11:00,
2013-02-15 03:16:00,38.1,36.5,30.02,South,188,0.0,0.0,94,0.00,,,0.01,Wunderground v.1.15,2013-02-15 08:16:00,
2013-02-15 03:25:00,37.7,36.1,30.02,South,188,0.0,0.0,94,0.00,,,0.01,Wunderground v.1.15,2013-02-15 08:25:00,
2013-02-15 03:35:00,37.3,35.7,30.02,South,188,0.0,0.0,94,0.00,,,0.01,Wunderground v.1.15,2013-02-15 08:35:00,
2013-02-15 03:40:00,37.1,35.5,30.02,South,188,0.0,0.0,94,0.00,,,0.01,Wunderground v.1.15,2013-02-15 08:40:00,
2013-02-15 03:50:00,36.9,35.3,30.01,South,188,0.0,0.0,94,0.00,,,0.01,Wunderground v.1.15,2013-02-15 08:50:00,
2013-02-15 03:55:00,36.8,35.2,30.01,South,188,0.0,0.0,94,0.00,,,0.01,Wunderground v.1.15,2013-02-15 08:55:00,
2013-02-15 04:00:00,36.6,35.0,30.01,South,188,0.0,0.0,94,0.00,,,0.01,Wunderground v.1.15,2013-02-15 09:00:00,
2013-02-15 04:10:00,36.9,35.3,30.01,South,188,0.0,0.0,94,0.00,,,0.01,Wunderground v.1.15,2013-02-15 09:10:00,
2013-02-15 04:15:00,36.9,35.3,30.01,South,188,0.0,0.0,94,0.00,,,0.01,Wunderground v.1.15,2013-02-15 09:15:00,
2013-02-15 04:21:00,36.8,35.2,30.01,South,188,0.0,0.0,94,0.00,,,0.01,Wunderground v.1.15,2013-02-15 09:21:00,
2013-02-15 04:26:00,36.7,35.1,30.01,South,188,0.0,0.0,94,0.00,,,0.01,Wunderground v.1.15,2013-02-15 09:26:00,
2013-02-15 04:35:00,36.2,34.6,30.00,South,188,0.0,0.0,94,0.00,,,0.01,Wunderground v.1.15,2013-02-15 09:35:00,
2013-02-15 04:40:00,36.7,35.4,30.00,South,188,0.0,0.0,95,0.00,,,0.01,Wunderground v.1.15,2013-02-15 09:40:00,
2013-02-15 04:46:00,36.9,35.6,30.00,South,188,0.0,0.0,95,0.00,,,0.01,Wunderground v.1.15,2013-02-15 09:46:00,
2013-02-15 04:56:00,36.6,35.0,30.00,South,188,0.0,0.0,94,0.00,,,0.01,Wunderground v.1.15,2013-02-15 09:56:00,
2013-02-15 05:06:00,36.5,34.9,30.01,South,188,0.0,0.0,94,0.00,,,0.01,Wunderground v.1.15,2013-02-15 10:06:00,
2013-02-15 05:15:00,36.7,35.4,30.01,WSW,258,0.0,1.0,95,0.00,,,0.01,Wunderground v.1.15,2013-02-15 10:15:00,
2013-02-15 05:21:00,37.1,35.8,30.01,WSW,258,0.0,1.0,95,0.00,,,0.01,Wunderground v.1.15,2013-02-15 10:21:00,
2013-02-15 05:31:00,37.4,36.1,30.02,WNW,288,2.0,2.0,95,0.00,,,0.01,Wunderground v.1.15,2013-02-15 10:31:00,
2013-02-15 05:40:00,37.1,35.5,30.02,WNW,288,1.0,1.0,94,0.00,,,0.01,Wunderground v.1.15,2013-02-15 10:40:00,
2013-02-15 05:50:00,37.1,35.8,30.03,WNW,288,0.0,0.0,95,0.00,,,0.01,Wunderground v.1.15,2013-02-15 10:50:00,
2013-02-15 05:55:00,37.1,35.5,30.03,WNW,288,0.0,0.0,94,0.00,,,0.01,Wunderground v.1.15,2013-02-15 10:55:00,
2013-02-15 06:00:00,37.2,35.9,30.03,WNW,288,0.0,0.0,95,0.00,,,0.01,Wunderground v.1.15,2013-02-15 11:00:00,
2013-02-15 06:06:00,37.1,35.5,30.03,WNW,288,0.0,0.0,94,0.00,,,0.01,Wunderground v.1.15,2013-02-15 11:06:00,
2013-02-15 06:15:00,37.0,35.4,30.03,WNW,288,0.0,0.0,94,0.00,,,0.01,Wunderground v.1.15,2013-02-15 11:15:00,
2013-02-15 06:20:00,37.0,35.4,30.03,WNW,288,0.0,0.0,94,0.00,,,0.01,Wunderground v.1.15,2013-02-15 11:20:00,
2013-02-15 06:30:00,36.8,35.2,30.03,WNW,288,0.0,0.0,94,0.00,,,0.01,Wunderground v.1.15,2013-02-15 11:30:00,
2013-02-15 06:35:00,36.7,35.1,30.04,WNW,288,0.0,0.0,94,0.00,,,0.01,Wunderground v.1.15,2013-02-15 11:35:00,
2013-02-15 06:41:00,36.6,35.0,30.04,WNW,288,0.0,0.0,94,0.00,,,0.01,Wunderground v.1.15,2013-02-15 11:41:00,
2013-02-15 06:50:00,36.2,34.6,30.03,WNW,288,0.0,0.0,94,0.00,,,0.01,Wunderground v.1.15,2013-02-15 11:50:00,
2013-02-15 07:01:00,36.1,34.5,30.04,WNW,288,0.0,0.0,94,0.00,,,0.01,Wunderground v.1.15,2013-02-15 12:01:00,
2013-02-15 07:10:00,36.0,34.4,30.04,WNW,288,0.0,0.0,94,0.00,,,0.01,Wunderground v.1.15,2013-02-15 12:10:00,
2013-02-15 07:20:00,36.4,34.8,30.05,WNW,288,0.0,0.0,94,0.00,,,0.01,Wunderground v.1.15,2013-02-15 12:20:00,
2013-02-15 07:26:00,36.5,34.9,30.05,WNW,288,0.0,0.0,94,0.00,,,0.01,Wunderground v.1.15,2013-02-15 12:26:00,
2013-02-15 07:35:00,37.1,35.5,30.05,WNW,288,0.0,2.0,94,0.00,,,0.01,Wunderground v.1.15,2013-02-15 12:35:00,
2013-02-15 07:41:00,37.6,36.0,30.05,NW,317,1.0,2.0,94,0.00,,,0.01,Wunderground v.1.15,2013-02-15 12:41:00,
2013-02-15 07:51:00,38.6,37.0,30.05,NW,317,1.0,1.0,94,0.00,,,0.01,Wunderground v.1.15,2013-02-15 12:51:00,
2013-02-15 07:56:00,39.2,37.6,30.05,NW,317,0.0,1.0,94,0.00,,,0.01,Wunderground v.1.15,2013-02-15 12:56:00,
2013-02-15 08:06:00,40.4,38.5,30.06,NW,317,1.0,2.0,93,0.00,,,0.01,Wunderground v.1.15,2013-02-15 13:06:00,
2013-02-15 08:15:00,41.6,39.2,30.06,NW,317,2.0,3.0,91,0.00,,,0.01,Wunderground v.1.15,2013-02-15 13:15:00,
2013-02-15 08:20:00,42.1,39.7,30.06,NW,317,2.0,2.0,91,0.00,,,0.01,Wunderground v.1.15,2013-02-15 13:20:00,
2013-02-15 08:25:00,42.6,39.9,30.06,NW,317,2.0,3.0,90,0.00,,,0.01,Wunderground v.1.15,2013-02-15 13:25:00,
2013-02-15 08:35:00,43.7,40.7,30.06,NW,317,2.0,2.0,89,0.00,,,0.01,Wunderground v.1.15,2013-02-15 13:35:00,
2013-02-15 08:41:00,44.2,40.9,30.06,NW,317,2.0,3.0,88,0.00,,,0.01,Wunderground v.1.15,2013-02-15 13:41:00,
2013-02-15 08:46:00,44.8,41.2,30.06,NW,317,2.0,3.0,87,0.00,,,0.01,Wunderground v.1.15,2013-02-15 13:46:00,
2013-02-15 08:55:00,45.6,41.0,30.06,NNW,327,3.0,4.0,84,0.00,,,0.01,Wunderground v.1.15,2013-02-15 13:55:00,
2013-02-15 09:00:00,46.4,41.8,30.06,NNW,327,2.0,2.0,84,0.00,,,0.01,Wunderground v.1.15,2013-02-15 14:00:00,
2013-02-15 09:06:00,47.2,42.0,30.06,NNW,327,2.0,3.0,82,0.00,,,0.01,Wunderground v.1.15,2013-02-15 14:06:00,
2013-02-15 09:15:00,48.2,42.0,30.06,NNE,14,2.0,2.0,79,0.00,,,0.01,Wunderground v.1.15,2013-02-15 14:15:00,
2013-02-15 09:20:00,48.5,41.6,30.05,NNW,346,2.0,2.0,77,0.00,,,0.01,Wunderground v.1.15,2013-02-15 14:20:00,
2013-02-15 09:25:00,49.1,42.2,30.05,NNW,346,2.0,2.0,77,0.00,,,0.01,Wunderground v.1.15,2013-02-15 14:25:00,
2013-02-15 09:30:00,50.1,42.1,30.06,North,355,2.0,3.0,74,0.00,,,0.01,Wunderground v.1.15,2013-02-15 14:30:00,
2013-02-15 09:36:00,50.5,42.2,30.05,NNE,17,3.0,3.0,73,0.00,,,0.01,Wunderground v.1.15,2013-02-15 14:36:00,
2013-02-15 09:46:00,50.9,41.1,30.05,NNW,331,3.0,3.0,69,0.00,,,0.01,Wunderground v.1.15,2013-02-15 14:46:00,
2013-02-15 09:55:00,51.6,41.4,30.05,NNW,341,3.0,4.0,68,0.00,,,0.01,Wunderground v.1.15,2013-02-15 14:55:00,
2013-02-15 10:00:00,51.9,41.7,30.06,North,11,4.0,5.0,68,0.00,,,0.01,Wunderground v.1.15,2013-02-15 15:00:00,
2013-02-15 10:05:00,52.1,41.5,30.05,NNE,28,4.0,7.0,67,0.00,,,0.01,Wunderground v.1.15,2013-02-15 15:05:00,
2013-02-15 10:10:00,52.5,42.2,30.05,NNW,341,4.0,4.0,68,0.00,,,0.01,Wunderground v.1.15,2013-02-15 15:10:00,
2013-02-15 10:16:00,52.6,41.2,30.05,NW,321,4.0,4.0,65,0.00,,,0.01,Wunderground v.1.15,2013-02-15 15:16:00,
2013-02-15 10:25:00,53.5,41.2,30.05,NE,34,4.0,5.0,63,0.00,,,0.01,Wunderground v.1.15,2013-02-15 15:25:00,
2013-02-15 10:30:00,53.1,40.4,30.05,North,355,5.0,5.0,62,0.00,,,0.01,Wunderground v.1.15,2013-02-15 15:30:00,
2013-02-15 10:36:00,54.0,40.8,30.05,NNW,327,4.0,5.0,61,0.00,,,0.01,Wunderground v.1.15,2013-02-15 15:36:00,
2013-02-15 10:45:00,54.3,41.6,30.05,North,360,3.0,3.0,62,0.00,,,0.01,Wunderground v.1.15,2013-02-15 15:45:00,
2013-02-15 10:51:00,54.5,40.9,30.05,NE,36,3.0,3.0,60,0.00,,,0.01,Wunderground v.1.15,2013-02-15 15:51:00,
2013-02-15 11:00:00,54.5,41.3,30.05,WNW,300,3.0,5.0,61,0.00,,,0.01,Wunderground v.1.15,2013-02-15 16:00:00,
2013-02-15 11:10:00,54.6,39.7,30.04,ESE,106,3.0,3.0,57,0.00,,,0.01,Wunderground v.1.15,2013-02-15 16:10:00,
2013-02-15 11:16:00,55.4,40.9,30.04,NNE,28,3.0,5.0,58,0.00,,,0.01,Wunderground v.1.15,2013-02-15 16:16:00,
2013-02-15 11:25:00,55.7,41.1,30.03,ENE,61,3.0,4.0,58,0.00,,,0.01,Wunderground v.1.15,2013-02-15 16:25:00,
2013-02-15 11:31:00,55.9,40.0,30.03,NE,50,3.0,6.0,55,0.00,,,0.01,Wunderground v.1.15,2013-02-15 16:31:00,
2013-02-15 11:40:00,55.5,39.1,30.03,East,82,2.0,2.0,54,0.00,,,0.01,Wunderground v.1.15,2013-02-15 16:40:00,
2013-02-15 11:45:00,55.9,40.0,30.03,East,80,2.0,6.0,55,0.00,,,0.01,Wunderground v.1.15,2013-02-15 16:45:00,
2013-02-15 11:51:00,55.9,40.0,30.03,NE,48,4.0,5.0,55,0.00,,,0.01,Wunderground v.1.15,2013-02-15 16:51:00,
2013-02-15 11:56:00,55.9,40.4,30.03,ENE,63,4.0,5.0,56,0.00,,,0.01,Wunderground v.1.15,2013-02-15 16:56:00,
2013-02-15 12:05:00,56.1,39.2,30.02,SSE,156,2.0,3.0,53,0.00,,,0.01,Wunderground v.1.15,2013-02-15 17:05:00,
2013-02-15 12:10:00,56.6,40.6,30.02,SSW,198,1.0,2.0,55,0.00,,,0.01,Wunderground v.1.15,2013-02-15 17:10:00,
2013-02-15 12:20:00,57.4,40.4,30.02,SE,126,2.0,3.0,53,0.00,,,0.01,Wunderground v.1.15,2013-02-15 17:20:00,
2013-02-15 12:25:00,57.2,39.2,30.02,SE,134,3.0,3.0,51,0.00,,,0.01,Wunderground v.1.15,2013-02-15 17:25:00,
2013-02-15 12:30:00,57.3,39.3,30.01,SE,134,2.0,2.0,51,0.00,,,0.01,Wunderground v.1.15,2013-02-15 17:30:00,
2013-02-15 12:35:00,57.3,39.8,30.01,ESE,117,2.0,2.0,52,0.00,,,0.01,Wunderground v.1.15,2013-02-15 17:35:00,
2013-02-15 12:40:00,57.1,39.1,30.01,South,189,2.0,3.0,51,0.00,,,0.01,Wunderground v.1.15,2013-02-15 17:40:00,
2013-02-15 12:50:00,57.6,39.1,30.01,South,188,0.0,0.0,50,0.00,,,0.01,Wunderground v.1.15,2013-02-15 17:50:00,
2013-02-15 12:55:00,57.8,39.8,30.01,South,184,1.0,5.0,51,0.00,,,0.01,Wunderground v.1.15,2013-02-15 17:55:00,
2013-02-15 13:05:00,57.9,38.8,30.00,South,184,5.0,6.0,49,0.00,,,0.01,Wunderground v.1.15,2013-02-15 18:05:00,
2013-02-15 13:11:00,58.6,39.5,30.00,SSW,197,4.0,6.0,49,0.00,,,0.01,Wunderground v.1.15,2013-02-15 18:11:00,
2013-02-15 13:20:00,58.7,39.0,29.99,SSW,202,3.0,6.0,48,0.00,,,0.01,Wunderground v.1.15,2013-02-15 18:20:00,
2013-02-15 13:26:00,59.0,39.9,29.99,SSE,162,3.0,6.0,49,0.00,,,0.01,Wunderground v.1.15,2013-02-15 18:26:00,
2013-02-15 13:36:00,58.7,38.0,29.99,ESE,105,3.0,4.0,46,0.00,,,0.01,Wunderground v.1.15,2013-02-15 18:36:00,
2013-02-15 13:45:00,58.9,38.7,29.98,South,169,3.0,7.0,47,0.00,,,0.01,Wunderground v.1.15,2013-02-15 18:45:00,
2013-02-15 13:50:00,58.6,41.0,29.98,South,173,6.0,6.0,52,0.00,,,0.01,Wunderground v.1.15,2013-02-15 18:50:00,
2013-02-15 13:56:00,57.8,40.8,29.98,SE,142,7.0,7.0,53,0.00,,,0.01,Wunderground v.1.15,2013-02-15 18:56:00,
2013-02-15 14:05:00,57.8,40.3,29.97,South,181,6.0,7.0,52,0.00,,,0.01,Wunderground v.1.15,2013-02-15 19:05:00,
2013-02-15 14:11:00,58.0,39.5,29.97,SSE,153,6.0,8.0,50,0.00,,,0.01,Wunderground v.1.15,2013-02-15 19:11:00,
2013-02-15 14:20:00,58.6,40.5,29.97,SSE,161,7.0,7.0,51,0.00,,,0.01,Wunderground v.1.15,2013-02-15 19:20:00,
2013-02-15 14:26:00,57.8,39.8,29.97,SE,127,6.0,11.0,51,0.00,,,0.01,Wunderground v.1.15,2013-02-15 19:26:00,
2013-02-15 14:35:00,57.2,39.2,29.97,South,174,8.0,8.0,51,0.00,,,0.01,Wunderground v.1.15,2013-02-15 19:35:00,
2013-02-15 14:41:00,57.4,38.4,29.96,SSE,156,7.0,7.0,49,0.00,,,0.01,Wunderground v.1.15,2013-02-15 19:41:00,
2013-02-15 14:46:00,57.5,39.5,29.96,SE,135,5.0,7.0,51,0.00,,,0.01,Wunderground v.1.15,2013-02-15 19:46:00,
2013-02-15 14:56:00,57.6,39.1,29.96,SE,145,6.0,10.0,50,0.00,,,0.01,Wunderground v.1.15,2013-02-15 19:56:00,
2013-02-15 15:05:00,57.3,38.8,29.95,SSE,155,7.0,9.0,50,0.00,,,0.01,Wunderground v.1.15,2013-02-15 20:05:00,
2013-02-15 15:10:00,57.0,39.0,29.95,SSE,152,7.0,8.0,51,0.00,,,0.01,Wunderground v.1.15,2013-02-15 20:10:00,
2013-02-15 15:16:00,56.7,37.7,29.95,SSE,155,6.0,8.0,49,0.00,,,0.01,Wunderground v.1.15,2013-02-15 20:16:00,
2013-02-15 15:25:00,56.9,37.9,29.95,South,174,6.0,6.0,49,0.00,,,0.01,Wunderground v.1.15,2013-02-15 20:25:00,
2013-02-15 15:31:00,56.7,38.8,29.95,South,173,6.0,6.0,51,0.00,,,0.01,Wunderground v.1.15,2013-02-15 20:31:00,
2013-02-15 15:40:00,56.5,39.1,29.94,SE,138,6.0,6.0,52,0.00,,,0.01,Wunderground v.1.15,2013-02-15 20:40:00,
2013-02-15 15:45:00,56.6,39.7,29.94,SSE,163,6.0,6.0,53,0.00,,,0.01,Wunderground v.1.15,2013-02-15 20:45:00,
2013-02-15 15:51:00,56.1,38.7,29.94,SE,136,6.0,8.0,52,0.00,,,0.01,Wunderground v.1.15,2013-02-15 20:51:00,
2013-02-15 16:00:00,56.2,38.8,29.94,South,175,7.0,9.0,52,0.00,,,0.01,Wunderground v.1.15,2013-02-15 21:00:00,
2013-02-15 16:05:00,56.4,38.5,29.94,South,171,6.0,9.0,51,0.00,,,0.01,Wunderground v.1.15,2013-02-15 21:05:00,
2013-02-15 16:11:00,56.2,38.8,29.94,SSE,150,6.0,9.0,52,0.00,,,0.01,Wunderground v.1.15,2013-02-15 21:11:00,
2013-02-15 16:16:00,56.4,39.0,29.94,SE,142,6.0,9.0,52,0.00,,,0.01,Wunderground v.1.15,2013-02-15 21:16:00,
2013-02-15 16:25:00,56.4,38.5,29.94,SSE,147,5.0,8.0,51,0.00,,,0.01,Wunderground v.1.15,2013-02-15 21:25:00,
2013-02-15 16:31:00,56.1,38.2,29.94,SSE,148,5.0,10.0,51,0.00,,,0.01,Wunderground v.1.15,2013-02-15 21:31:00,
2013-02-15 16:40:00,55.7,37.8,29.94,SE,138,6.0,6.0,51,0.00,,,0.01,Wunderground v.1.15,2013-02-15 21:40:00,
2013-02-15 16:46:00,55.3,37.5,29.94,SE,124,6.0,7.0,51,0.00,,,0.01,Wunderground v.1.15,2013-02-15 21:46:00,
2013-02-15 16:55:00,55.3,38.4,29.94,SE,142,6.0,6.0,53,0.00,,,0.01,Wunderground v.1.15,2013-02-15 21:55:00,
2013-02-15 17:01:00,55.0,38.2,29.94,SSE,167,6.0,6.0,53,0.00,,,0.01,Wunderground v.1.15,2013-02-15 22:01:00,
2013-02-15 17:10:00,54.7,37.9,29.94,SE,141,5.0,8.0,53,0.00,,,0.01,Wunderground v.1.15,2013-02-15 22:10:00,
2013-02-15 17:16:00,54.4,38.1,29.94,South,177,6.0,8.0,54,0.00,,,0.01,Wunderground v.1.15,2013-02-15 22:16:00,
2013-02-15 17:25:00,54.0,38.2,29.93,SSE,150,6.0,10.0,55,0.00,,,0.01,Wunderground v.1.15,2013-02-15 22:25:00,
2013-02-15 17:30:00,53.7,38.8,29.93,South,171,7.0,7.0,57,0.00,,,0.01,Wunderground v.1.15,2013-02-15 22:30:00,
2013-02-15 17:36:00,53.5,38.6,29.93,SSE,147,7.0,7.0,57,0.00,,,0.01,Wunderground v.1.15,2013-02-15 22:36:00,
2013-02-15 17:45:00,52.9,38.5,29.93,SSE,157,5.0,5.0,58,0.00,,,0.01,Wunderground v.1.15,2013-02-15 22:45:00,
2013-02-15 17:55:00,52.4,39.3,29.93,South,186,3.0,4.0,61,0.00,,,0.01,Wunderground v.1.15,2013-02-15 22:55:00,
2013-02-15 18:01:00,52.1,39.9,29.93,South,172,2.0,2.0,63,0.00,,,0.01,Wunderground v.1.15,2013-02-15 23:01:00,
2013-02-15 18:06:00,51.8,40.0,29.93,South,173,1.0,2.0,64,0.00,,,0.01,Wunderground v.1.15,2013-02-15 23:06:00,
2013-02-15 18:15:00,51.4,40.0,29.94,South,189,1.0,1.0,65,0.00,,,0.01,Wunderground v.1.15,2013-02-15 23:15:00,
2013-02-15 18:21:00,51.1,40.1,29.94,SSE,164,1.0,1.0,66,0.00,,,0.01,Wunderground v.1.15,2013-02-15 23:21:00,
2013-02-15 18:30:00,50.6,40.0,29.94,South,178,1.0,1.0,67,0.00,,,0.01,Wunderground v.1.15,2013-02-15 23:30:00,
2013-02-15 18:35:00,50.4,39.9,29.94,South,178,1.0,1.0,67,0.00,,,0.01,Wunderground v.1.15,2013-02-15 23:35:00,
2013-02-15 18:40:00,50.2,40.0,29.94,South,178,0.0,1.0,68,0.00,,,0.01,Wunderground v.1.15,2013-02-15 23:40:00,
2013-02-15 18:46:00,50.0,40.2,29.94,South,177,1.0,1.0,69,0.00,,,0.01,Wunderground v.1.15,2013-02-15 23:46:00,
2013-02-15 18:51:00,49.9,40.1,29.94,South,177,1.0,1.0,69,0.00,,,0.01,Wunderground v.1.15,2013-02-15 23:51:00,
2013-02-15 19:00:00,49.8,40.0,29.95,SSW,197,2.0,2.0,69,0.00,,,0.01,Wunderground v.1.15,2013-02-16 00:00:00,
2013-02-15 19:05:00,49.7,40.3,29.95,South,187,3.0,5.0,70,0.00,,,0.01,Wunderground v.1.15,2013-02-16 00:05:00,
2013-02-15 19:11:00,49.5,40.5,29.95,SSW,206,3.0,3.0,71,0.00,,,0.01,Wunderground v.1.15,2013-02-16 00:11:00,
2013-02-15 19:20:00,49.0,40.7,29.95,SSW,206,1.0,2.0,73,0.00,,,0.01,Wunderground v.1.15,2013-02-16 00:20:00,
2013-02-15 19:25:00,48.9,40.6,29.95,SSW,206,1.0,2.0,73,0.00,,,0.01,Wunderground v.1.15,2013-02-16 00:25:00,
2013-02-15 19:31:00,48.7,40.8,29.95,SSW,206,2.0,2.0,74,0.00,,,0.01,Wunderground v.1.15,2013-02-16 00:31:00,
2013-02-15 19:36:00,48.6,41.0,29.95,SSW,206,1.0,2.0,75,0.00,,,0.01,Wunderground v.1.15,2013-02-16 00:36:00,
2013-02-15 19:45:00,48.4,41.2,29.95,SSW,206,1.0,2.0,76,0.00,,,0.01,Wunderground v.1.15,2013-02-16 00:45:00,
2013-02-15 19:50:00,48.3,41.1,29.95,SSW,206,1.0,2.0,76,0.00,,,0.01,Wunderground v.1.15,2013-02-16 00:50:00,
2013-02-15 20:00:00,48.0,41.1,29.95,SSW,206,0.0,0.0,77,0.00,,,0.01,Wunderground v.1.15,2013-02-16 01:00:00,
2013-02-15 20:06:00,47.9,41.4,29.95,SSW,206,0.0,0.0,78,0.00,,,0.01,Wunderground v.1.15,2013-02-16 01:06:00,
2013-02-15 20:16:00,47.7,41.5,29.95,SSW,206,0.0,0.0,79,0.00,,,0.01,Wunderground v.1.15,2013-02-16 01:16:00,
2013-02-15 20:25:00,47.6,41.4,29.95,SSW,206,0.0,1.0,79,0.00,,,0.01,Wunderground v.1.15,2013-02-16 01:25:00,
2013-02-15 20:30:00,47.4,41.5,29.94,SSW,206,0.0,1.0,80,0.00,,,0.01,Wunderground v.1.15,2013-02-16 01:30:00,
2013-02-15 20:41:00,47.4,41.5,29.94,SSW,203,1.0,1.0,80,0.00,,,0.01,Wunderground v.1.15,2013-02-16 01:41:00,
2013-02-15 20:50:00,47.3,41.4,29.94,SSW,203,1.0,2.0,80,0.00,,,0.01,Wunderground v.1.15,2013-02-16 01:50:00,
2013-02-15 21:00:00,46.7,41.2,29.94,SSW,203,1.0,1.0,81,0.00,,,0.01,Wunderground v.1.15,2013-02-16 02:00:00,
2013-02-15 21:06:00,46.5,41.3,29.94,SSW,203,0.0,1.0,82,0.00,,,0.01,Wunderground v.1.15,2013-02-16 02:06:00,
2013-02-15 21:15:00,46.6,41.4,29.94,SSW,203,0.0,0.0,82,0.00,,,0.01,Wunderground v.1.15,2013-02-16 02:15:00,
2013-02-15 21:20:00,46.6,41.4,29.94,SSW,203,0.0,0.0,82,0.00,,,0.01,Wunderground v.1.15,2013-02-16 02:20:00,
2013-02-15 21:26:00,46.3,41.4,29.94,SSW,203,0.0,0.0,83,0.00,,,0.01,Wunderground v.1.15,2013-02-16 02:26:00,
2013-02-15 21:31:00,46.2,41.3,29.94,SSW,203,0.0,2.0,83,0.00,,,0.01,Wunderground v.1.15,2013-02-16 02:31:00,
2013-02-15 21:40:00,45.9,41.0,29.94,SSW,203,1.0,1.0,83,0.00,,,0.01,Wunderground v.1.15,2013-02-16 02:40:00,
2013-02-15 21:46:00,45.8,41.2,29.94,SSW,203,0.0,1.0,84,0.00,,,0.01,Wunderground v.1.15,2013-02-16 02:46:00,
2013-02-15 21:55:00,45.5,40.9,29.94,SSW,203,0.0,0.0,84,0.00,,,0.01,Wunderground v.1.15,2013-02-16 02:55:00,
2013-02-15 22:01:00,45.2,41.0,29.94,SSW,203,0.0,0.0,85,0.00,,,0.01,Wunderground v.1.15,2013-02-16 03:01:00,
2013-02-15 22:11:00,45.1,40.9,29.94,SSW,203,0.0,0.0,85,0.00,,,0.01,Wunderground v.1.15,2013-02-16 03:11:00,
2013-02-15 22:20:00,45.1,40.9,29.93,SSW,203,0.0,0.0,85,0.00,,,0.01,Wunderground v.1.15,2013-02-16 03:20:00,
2013-02-15 22:25:00,45.4,41.2,29.93,SSW,203,0.0,0.0,85,0.00,,,0.01,Wunderground v.1.15,2013-02-16 03:25:00,
2013-02-15 22:31:00,45.5,41.3,29.93,SSW,203,0.0,2.0,85,0.00,,,0.01,Wunderground v.1.15,2013-02-16 03:31:00,
2013-02-15 22:36:00,45.4,41.2,29.93,SSW,203,0.0,2.0,85,0.00,,,0.01,Wunderground v.1.15,2013-02-16 03:36:00,
2013-02-15 22:45:00,45.3,41.1,29.93,SSW,203,0.0,0.0,85,0.00,,,0.01,Wunderground v.1.15,2013-02-16 03:45:00,
2013-02-15 22:50:00,45.1,40.9,29.93,SSW,203,0.0,0.0,85,0.00,,,0.01,Wunderground v.1.15,2013-02-16 03:50:00,
2013-02-15 22:55:00,44.6,40.7,29.93,SSW,203,0.0,0.0,86,0.00,,,0.01,Wunderground v.1.15,2013-02-16 03:55:00,
2013-02-15 23:01:00,44.3,40.4,29.93,SSW,203,0.0,0.0,86,0.00,,,0.01,Wunderground v.1.15,2013-02-16 04:01:00,
2013-02-15 23:10:00,44.5,40.9,29.93,SSW,203,0.0,0.0,87,0.00,,,0.01,Wunderground v.1.15,2013-02-16 04:10:00,
2013-02-15 23:20:00,44.0,40.4,29.93,SSW,203,0.0,0.0,87,0.00,,,0.01,Wunderground v.1.15,2013-02-16 04:20:00,
2013-02-15 23:26:00,44.0,40.7,29.93,SSW,203,0.0,0.0,88,0.00,,,0.01,Wunderground v.1.15,2013-02-16 04:26:00,
2013-02-15 23:35:00,44.0,40.7,29.92,SSW,203,0.0,0.0,88,0.00,,,0.01,Wunderground v.1.15,2013-02-16 04:35:00,
2013-02-15 23:45:00,43.9,40.6,29.92,SSW,203,0.0,0.0,88,0.00,,,0.01,Wunderground v.1.15,2013-02-16 04:45:00,
2013-02-15 23:50:00,43.8,40.5,29.92,SSW,203,0.0,0.0,88,0.00,,,0.01,Wunderground v.1.15,2013-02-16 04:50:00,